Terminal Aerodrome Forecast
Issued by NWS

Home | Current Version | Previous Version | Text Only | Print | Product List | Glossary On
Versions: 1 2 3 4 5 6 7 8 9 10 11 12 13 14 15 16 17 18 19 20 21 22 23 24 25 26
000
FTUS45 KGJT 042343
TAFRIL
TAF
KRIL 042343Z 0500/0524 VRB03KT P6SM VCSH BKN080 OVC100
     FM050100 15006KT P6SM VCSH SCT050 BKN080
      TEMPO 0501/0503 -TSRA SCT050CB BKN060
     FM051000 VRB05KT P6SM BKN100
     FM051800 27007KT P6SM VCSH SCT080 BKN100
     FM052200 26006KT P6SM -SHRA SCT050 BKN080=

USA.gov is the U.S. government's official web portal to all federal, state and local government web resources and services.